Sanger, Texas
Current Conditions -  °F | °C
As of 2:53 AM on Wednesday 28 Jan 2015 (Local Time) from KDTO Reporting Station
Clear Clear  
Wind Chill: 42°   Ceiling: Unl
Heat Index: 44°   Visibility: 10mi
Dew Point: 38°   Wind: 5mph
Humidity: 79%   Direction: 170°S
Pressure: 30.08"   Gusts: NA
Location:  33.36°N, 97.17°W
Report Text: KDTO 280853Z AUTO 17004KT 10SM CLR 07/03 A3008 RMK AO2 SLP183 T00670033 58007
Loading
Personal Weather Stations






























Interactive Weather Map New forecast layout! Learn more

10-Day Weather Forecast

Advertisements
Track Severe Weather on mobile